Time;durP1;ratioP1;P1;durP2;ratioP2;P2;SDS_P1;SDS_P2;PMS_P1;PMS_P2;Temp;Humidity;BMP_temperature;BMP_pressure;BME280_temperature;BME280_humidity;BME280_pressure;Samples;Min_cycle;Max_cycle;Signal;HPM_P1;HPM_P2
2021/06/16 00:02:16;;;;;;;1.23;0.40;;;18.80;99.90;;;;;;4978084;28;20238;-87
2021/06/16 00:04:47;;;;;;;1.73;0.50;;;19.10;99.90;;;;;;4983561;28;20214;-88
2021/06/16 00:07:18;;;;;;;0.97;0.40;;;18.80;99.90;;;;;;4997503;28;20211;-88
2021/06/16 00:09:49;;;;;;;1.20;0.40;;;18.80;99.90;;;;;;4998020;28;20763;-90
2021/06/16 00:12:21;;;;;;;1.90;0.30;;;18.90;99.90;;;;;;5000359;28;20217;-89
2021/06/16 00:14:54;;;;;;;0.40;0.30;;;18.80;99.90;;;;;;4997962;28;20230;-93
2021/06/16 00:17:25;;;;;;;2.00;0.40;;;18.50;99.90;;;;;;4986757;28;20243;-88
2021/06/16 00:19:56;;;;;;;0.40;0.27;;;18.10;99.90;;;;;;4998942;28;20250;-87
2021/06/16 00:22:27;;;;;;;1.27;0.40;;;18.30;99.90;;;;;;4998159;28;20202;-87
2021/06/16 00:24:59;;;;;;;0.60;0.43;;;18.60;99.90;;;;;;4999670;28;20309;-87
2021/06/16 00:27:30;;;;;;;1.17;0.37;;;18.70;99.90;;;;;;5000172;28;20214;-86
2021/06/16 00:30:05;;;;;;;1.03;0.30;;;19.00;99.90;;;;;;5000834;28;20333;-87
2021/06/16 00:32:37;;;;;;;0.40;0.40;;;18.90;99.90;;;;;;5011464;28;20210;-86
2021/06/16 00:35:08;;;;;;;0.90;0.30;;;19.50;99.90;;;;;;5023622;28;20206;-85
2021/06/16 00:37:39;;;;;;;1.17;0.50;;;20.20;99.90;;;;;;4998242;28;20191;-87
2021/06/16 00:40:13;;;;;;;1.63;0.50;;;20.40;99.90;;;;;;4990065;28;20218;-88
2021/06/16 00:42:44;;;;;;;1.80;0.40;;;20.60;99.90;;;;;;4998913;28;20210;-89
2021/06/16 00:45:18;;;;;;;1.70;0.40;;;20.90;99.90;;;;;;4995832;28;20242;-87
2021/06/16 00:47:55;;;;;;;2.10;0.60;;;20.60;99.90;;;;;;4996624;28;20264;-87
2021/06/16 00:50:29;;;;;;;1.57;0.53;;;20.30;99.90;;;;;;4995046;28;20324;-87
2021/06/16 00:53:00;;;;;;;1.63;0.50;;;19.30;99.90;;;;;;4976183;28;20573;-87
2021/06/16 00:55:31;;;;;;;2.47;0.47;;;18.80;99.90;;;;;;4982922;28;20596;-86
2021/06/16 00:58:03;;;;;;;1.07;0.40;;;18.80;99.90;;;;;;4983084;28;20690;-87
2021/06/16 01:00:43;;;;;;;1.50;0.37;;;19.10;99.90;;;;;;4994792;28;20264;-88
2021/06/16 01:03:17;;;;;;;0.80;0.50;;;19.60;99.90;;;;;;4995377;28;20206;-87
2021/06/16 01:05:52;;;;;;;3.80;0.60;;;19.90;99.90;;;;;;4995848;28;20214;-87
2021/06/16 01:08:29;;;;;;;1.10;0.40;;;19.70;99.90;;;;;;4996234;28;20233;-88
2021/06/16 01:11:07;;;;;;;1.13;0.50;;;20.40;99.90;;;;;;4998688;28;20221;-87
2021/06/16 01:13:47;;;;;;;1.83;0.67;;;21.00;99.90;;;;;;5012720;28;20618;-87
2021/06/16 01:16:25;;;;;;;3.60;0.60;;;21.70;99.90;;;;;;5014345;28;20233;-87
2021/06/16 01:19:02;;;;;;;3.03;0.43;;;22.10;99.90;;;;;;5013056;28;20198;-88
2021/06/16 01:21:38;;;;;;;1.90;0.60;;;22.10;99.90;;;;;;4996001;28;20206;-87
2021/06/16 01:24:16;;;;;;;3.77;0.70;;;21.80;99.90;;;;;;4996934;28;20260;-87
2021/06/16 01:26:51;;;;;;;2.67;0.70;;;21.50;99.90;;;;;;4976180;28;20250;-87
2021/06/16 01:29:24;;;;;;;1.47;0.40;;;20.50;99.90;;;;;;4978347;28;20236;-87
2021/06/16 01:31:57;;;;;;;2.13;0.57;;;19.70;99.90;;;;;;4974383;28;20302;-87
2021/06/16 01:34:28;;;;;;;1.73;0.60;;;19.60;99.90;;;;;;4991553;28;20218;-87
2021/06/16 01:37:01;;;;;;;3.83;0.73;;;19.30;99.90;;;;;;4994399;28;20210;-87
2021/06/16 01:39:37;;;;;;;2.33;0.37;;;19.20;99.90;;;;;;4994836;28;20300;-87
2021/06/16 01:42:14;;;;;;;1.17;0.70;;;19.30;99.90;;;;;;4995044;28;20305;-87
2021/06/16 01:44:46;;;;;;;0.60;0.30;;;18.90;99.90;;;;;;4993598;28;20238;-87
2021/06/16 01:47:19;;;;;;;1.70;0.50;;;19.30;99.90;;;;;;4998055;28;20376;-88
2021/06/16 01:49:54;;;;;;;1.43;0.43;;;19.70;99.90;;;;;;4993796;28;20257;-89
2021/06/16 01:52:27;;;;;;;1.13;0.43;;;20.00;99.90;;;;;;4996552;28;20209;-88
2021/06/16 01:54:58;;;;;;;1.93;0.83;;;20.30;99.90;;;;;;4995855;28;20238;-87
2021/06/16 01:57:30;;;;;;;2.00;0.50;;;20.50;99.90;;;;;;4995828;28;20234;-88
2021/06/16 02:00:03;;;;;;;5.13;0.50;;;20.70;99.90;;;;;;4992933;28;20288;-87
2021/06/16 02:02:34;;;;;;;4.07;2.23;;;20.10;99.90;;;;;;4995037;28;20210;-88
2021/06/16 02:05:07;;;;;;;2.37;1.00;;;20.20;99.90;;;;;;4995079;28;20306;-87
2021/06/16 02:07:43;;;;;;;1.57;0.50;;;20.20;99.90;;;;;;4994102;28;20649;-88
2021/06/16 02:10:17;;;;;;;2.77;0.70;;;20.50;99.90;;;;;;4992606;28;20271;-87
2021/06/16 02:12:50;;;;;;;1.47;0.70;;;19.90;99.90;;;;;;4994218;28;20315;-87
2021/06/16 02:15:22;;;;;;;4.07;0.80;;;19.80;99.90;;;;;;4992755;28;20217;-88
2021/06/16 02:17:56;;;;;;;2.10;0.50;;;20.00;99.90;;;;;;4994063;28;20266;-88
2021/06/16 02:20:27;;;;;;;2.13;0.57;;;19.50;99.90;;;;;;4996952;28;20220;-87
2021/06/16 02:22:58;;;;;;;1.53;0.47;;;19.60;99.90;;;;;;4994223;28;20663;-88
2021/06/16 02:25:29;;;;;;;1.57;0.60;;;19.50;99.90;;;;;;4994089;28;20667;-87
2021/06/16 02:28:03;;;;;;;2.37;0.63;;;20.10;99.90;;;;;;4992918;28;20272;-87
2021/06/16 02:30:33;;;;;;;3.13;0.53;;;20.70;99.90;;;;;;4991169;28;20298;-87
2021/06/16 02:33:05;;;;;;;1.10;0.47;;;19.70;99.90;;;;;;4974598;28;20242;-87
2021/06/16 02:35:39;;;;;;;2.87;0.50;;;19.20;99.90;;;;;;4983196;28;20659;-87
2021/06/16 02:38:13;;;;;;;1.70;0.60;;;18.90;99.90;;;;;;4994320;28;20237;-87
2021/06/16 02:40:45;;;;;;;2.27;0.43;;;18.80;99.90;;;;;;4992903;28;20357;-87
2021/06/16 02:43:19;;;;;;;2.43;0.60;;;18.40;99.90;;;;;;4993386;28;20218;-87
2021/06/16 02:45:51;;;;;;;1.90;0.60;;;18.10;99.90;;;;;;4993581;28;20301;-87
2021/06/16 02:48:22;;;;;;;2.27;0.50;;;17.90;99.90;;;;;;4995194;28;20634;-87
2021/06/16 02:50:56;;;;;;;1.70;0.40;;;17.70;99.90;;;;;;4976815;28;20238;-87
2021/06/16 02:53:29;;;;;;;3.60;0.80;;;17.60;99.90;;;;;;4997341;28;20659;-86
2021/06/16 02:56:04;;;;;;;1.80;0.50;;;17.40;99.90;;;;;;4997844;28;20297;-86
2021/06/16 02:58:39;;;;;;;1.00;0.30;;;17.30;99.90;;;;;;4998630;28;20631;-86
2021/06/16 03:01:14;;;;;;;3.23;0.50;;;17.20;99.90;;;;;;4995740;28;20310;-86
2021/06/16 03:03:48;;;;;;;1.03;0.40;;;17.10;99.90;;;;;;4994329;28;20229;-86
2021/06/16 03:06:21;;;;;;;1.30;0.50;;;17.10;99.90;;;;;;4978882;28;20217;-87
2021/06/16 03:08:53;;;;;;;1.47;0.43;;;17.00;99.90;;;;;;4992298;28;20252;-87
2021/06/16 03:11:26;;;;;;;1.30;0.40;;;17.00;99.90;;;;;;4996616;28;20596;-87
2021/06/16 03:14:00;;;;;;;1.07;0.50;;;16.90;99.90;;;;;;4997455;28;20660;-88
2021/06/16 03:16:32;;;;;;;1.93;0.30;;;16.80;99.90;;;;;;4997661;28;20301;-88
2021/06/16 03:19:04;;;;;;;1.67;0.50;;;16.70;99.90;;;;;;4997213;28;20214;-87
2021/06/16 03:21:37;;;;;;;2.00;0.60;;;16.70;99.90;;;;;;4979101;28;20207;-87
2021/06/16 03:24:12;;;;;;;0.40;0.40;;;16.70;99.90;;;;;;4978533;28;20203;-88
2021/06/16 03:26:44;;;;;;;2.53;0.50;;;16.60;99.90;;;;;;4995371;28;20233;-87
2021/06/16 03:29:35;;;;;;;2.33;0.60;;;16.50;99.90;;;;;;4997787;28;20655;-87
2021/06/16 03:32:09;;;;;;;1.93;0.53;;;16.40;99.90;;;;;;5006517;28;20216;-87
2021/06/16 03:34:40;;;;;;;3.10;0.50;;;16.40;99.90;;;;;;5006737;28;20210;-88
2021/06/16 03:37:12;;;;;;;1.37;0.30;;;16.30;99.90;;;;;;5006450;28;20197;-88
2021/06/16 03:39:44;;;;;;;2.00;0.60;;;16.20;99.90;;;;;;5017573;28;20242;-88
2021/06/16 03:42:15;;;;;;;1.27;0.30;;;16.10;99.90;;;;;;5007969;28;20221;-88
2021/06/16 03:44:49;;;;;;;3.03;0.50;;;16.00;99.90;;;;;;4981426;28;20243;-85
2021/06/16 03:47:22;;;;;;;3.10;0.90;;;15.90;99.90;;;;;;4996092;28;20242;-86
2021/06/16 03:49:54;;;;;;;1.70;0.43;;;15.90;99.90;;;;;;4977908;28;20246;-87
2021/06/16 03:52:26;;;;;;;2.10;0.60;;;15.80;99.90;;;;;;4976945;28;20664;-88
2021/06/16 03:54:57;;;;;;;1.40;0.47;;;15.70;99.90;;;;;;4993137;28;20333;-88
2021/06/16 03:57:29;;;;;;;2.30;0.50;;;15.60;99.90;;;;;;4997368;28;20297;-90
2021/06/16 04:00:04;;;;;;;1.83;0.50;;;15.60;99.90;;;;;;4994857;28;20706;-88
2021/06/16 04:02:36;;;;;;;0.93;0.30;;;15.60;99.90;;;;;;4994836;28;20218;-86
2021/06/16 04:05:08;;;;;;;3.60;0.73;;;15.60;99.90;;;;;;4994843;28;20249;-88
2021/06/16 04:07:39;;;;;;;3.13;0.43;;;15.50;99.90;;;;;;4996375;28;20246;-88
2021/06/16 04:10:13;;;;;;;3.10;0.60;;;15.50;99.90;;;;;;4995566;28;20285;-88
2021/06/16 04:12:46;;;;;;;2.13;0.77;;;15.40;99.90;;;;;;4993780;28;20300;-88
2021/06/16 04:15:20;;;;;;;2.90;0.60;;;15.40;99.90;;;;;;4995796;28;20235;-89
2021/06/16 04:17:52;;;;;;;2.20;0.53;;;15.40;99.90;;;;;;4995690;28;20313;-88
2021/06/16 04:20:23;;;;;;;0.97;0.40;;;15.30;99.90;;;;;;4993824;28;20233;-88
2021/06/16 04:22:54;;;;;;;2.53;1.00;;;15.30;99.90;;;;;;4995097;28;20246;-90
2021/06/16 04:25:26;;;;;;;1.27;0.67;;;15.30;99.90;;;;;;4995525;28;20222;-91
2021/06/16 04:27:58;;;;;;;4.53;0.60;;;15.30;99.90;;;;;;4989887;28;20262;-89
2021/06/16 04:30:31;;;;;;;1.70;0.50;;;15.30;99.90;;;;;;4994903;28;20205;-89
2021/06/16 04:33:01;;;;;;;2.07;0.50;;;15.30;99.90;;;;;;4997288;28;20242;-88
2021/06/16 04:35:32;;;;;;;1.40;0.50;;;15.30;99.90;;;;;;4996206;28;20305;-89
2021/06/16 04:38:03;;;;;;;2.70;0.90;;;15.30;99.90;;;;;;4995805;28;20318;-89
2021/06/16 04:40:34;;;;;;;2.57;0.60;;;15.30;99.90;;;;;;4993601;28;20309;-89
2021/06/16 04:43:04;;;;;;;3.50;0.77;;;15.30;99.90;;;;;;4993453;28;20226;-93
2021/06/16 04:45:38;;;;;;;1.50;0.50;;;15.20;99.90;;;;;;4991207;28;20309;-90
2021/06/16 04:48:09;;;;;;;3.13;0.73;;;15.20;99.90;;;;;;4996221;28;20218;-92
2021/06/16 04:50:40;;;;;;;2.30;0.67;;;15.20;99.90;;;;;;4995154;28;20377;-90
2021/06/16 04:53:11;;;;;;;3.33;0.70;;;15.20;99.90;;;;;;4651294;28;9999872;-90
2021/06/16 04:55:42;;;;;;;2.90;0.70;;;15.20;99.90;;;;;;4996371;28;20237;-91
2021/06/16 04:58:13;;;;;;;1.03;0.40;;;15.20;99.90;;;;;;4996075;28;20222;-90
2021/06/16 05:00:49;;;;;;;3.07;0.97;;;15.10;99.90;;;;;;4994848;28;20210;-90
2021/06/16 05:03:20;;;;;;;2.10;0.50;;;15.10;99.90;;;;;;4995940;28;20297;-90
2021/06/16 05:05:50;;;;;;;2.73;0.63;;;15.10;99.90;;;;;;4998788;28;20264;-86
2021/06/16 05:08:21;;;;;;;4.97;0.60;;;15.00;99.90;;;;;;4994930;28;20244;-85
2021/06/16 05:10:52;;;;;;;1.63;0.70;;;15.00;99.90;;;;;;4994233;28;20241;-86
2021/06/16 05:13:24;;;;;;;1.70;0.40;;;14.90;99.90;;;;;;4996331;28;20273;-85
2021/06/16 05:15:59;;;;;;;0.97;0.50;;;14.90;99.90;;;;;;4994875;28;20218;-87
2021/06/16 05:18:30;;;;;;;3.67;0.80;;;14.80;99.90;;;;;;4995741;28;20257;-88
2021/06/16 05:21:02;;;;;;;3.20;0.77;;;14.80;99.90;;;;;;4994227;28;20301;-88
2021/06/16 05:23:33;;;;;;;3.87;0.67;;;14.70;99.90;;;;;;4994465;28;20294;-88
2021/06/16 05:26:04;;;;;;;2.77;0.60;;;14.70;99.90;;;;;;4995677;28;20257;-88
2021/06/16 05:28:36;;;;;;;1.90;0.43;;;14.70;99.90;;;;;;4996580;28;20221;-87
2021/06/16 05:31:09;;;;;;;2.17;0.57;;;14.70;99.90;;;;;;4975657;28;20254;-86
2021/06/16 05:33:40;;;;;;;5.53;0.70;;;14.70;99.90;;;;;;4994083;28;20654;-87
2021/06/16 05:36:11;;;;;;;3.07;0.77;;;14.60;99.90;;;;;;4995500;28;20245;-86
2021/06/16 05:38:43;;;;;;;2.00;0.60;;;14.60;99.90;;;;;;4998476;28;20636;-86
2021/06/16 05:41:15;;;;;;;1.90;0.50;;;14.50;99.90;;;;;;4996063;28;20230;-86
2021/06/16 05:43:46;;;;;;;2.47;0.70;;;14.50;99.90;;;;;;4997884;28;20297;-87
2021/06/16 05:46:19;;;;;;;1.73;1.00;;;14.50;99.90;;;;;;4998313;28;20210;-86
2021/06/16 05:48:50;;;;;;;2.50;1.10;;;14.40;99.90;;;;;;5000953;28;20215;-87
2021/06/16 05:51:21;;;;;;;2.70;0.97;;;14.40;99.90;;;;;;4999498;28;20284;-87
2021/06/16 05:53:53;;;;;;;5.00;1.03;;;14.40;99.90;;;;;;4997047;28;20218;-86
2021/06/16 05:56:24;;;;;;;2.00;0.80;;;14.30;99.90;;;;;;5002319;28;20211;-87
2021/06/16 05:58:55;;;;;;;4.67;1.40;;;14.30;99.90;;;;;;5015752;28;20191;-86
2021/06/16 06:01:28;;;;;;;3.00;0.97;;;14.30;99.90;;;;;;5015428;28;20199;-87
2021/06/16 06:04:01;;;;;;;2.43;1.20;;;14.20;99.90;;;;;;5015757;28;20206;-86
2021/06/16 06:06:33;;;;;;;2.87;1.33;;;14.20;99.90;;;;;;5011359;28;20277;-85
2021/06/16 06:09:06;;;;;;;6.70;4.17;;;14.20;99.90;;;;;;5008169;28;20659;-86
2021/06/16 06:11:38;;;;;;;6.37;3.90;;;14.10;99.90;;;;;;4997579;28;20238;-86
2021/06/16 06:14:09;;;;;;;5.03;1.17;;;14.10;99.90;;;;;;4996334;28;20214;-86
2021/06/16 06:16:41;;;;;;;3.73;1.00;;;14.10;99.90;;;;;;4994744;28;20651;-86
2021/06/16 06:19:13;;;;;;;2.47;0.60;;;14.00;99.90;;;;;;4996222;28;20322;-86
2021/06/16 06:21:44;;;;;;;3.93;0.90;;;14.00;99.90;;;;;;4994027;28;20234;-87
2021/06/16 06:24:15;;;;;;;4.93;1.03;;;14.00;99.90;;;;;;4995025;28;20222;-88
2021/06/16 06:26:48;;;;;;;4.60;0.80;;;14.00;99.90;;;;;;4996145;28;20214;-88
2021/06/16 06:29:19;;;;;;;1.27;0.60;;;13.90;99.90;;;;;;4994682;28;20202;-88
2021/06/16 06:31:52;;;;;;;1.33;0.43;;;13.90;99.90;;;;;;4993672;28;20761;-88
2021/06/16 06:34:22;;;;;;;2.20;0.77;;;13.90;99.90;;;;;;4994536;28;20278;-87
2021/06/16 06:36:53;;;;;;;3.40;0.60;;;13.90;99.90;;;;;;4994798;28;20245;-89
2021/06/16 06:39:24;;;;;;;2.90;0.97;;;13.90;99.90;;;;;;4994898;28;20210;-89
2021/06/16 06:42:04;;;;;;;3.10;0.60;;;13.80;99.90;;;;;;4994804;28;20214;-88
2021/06/16 06:44:35;;;;;;;2.23;0.57;;;13.70;99.90;;;;;;4993879;28;20240;-88
2021/06/16 06:47:26;;;;;;;3.50;0.93;;;13.70;99.90;;;;;;5005298;28;20281;-88
2021/06/16 06:49:57;;;;;;;3.93;1.00;;;13.60;99.90;;;;;;5011281;28;20245;-88
2021/06/16 06:52:29;;;;;;;2.37;0.77;;;13.60;99.90;;;;;;4993754;28;20233;-89
2021/06/16 06:55:00;;;;;;;2.83;0.90;;;13.50;99.90;;;;;;4994697;28;20244;-88
2021/06/16 06:57:31;;;;;;;3.10;0.67;;;13.60;99.90;;;;;;4993405;28;20210;-89
2021/06/16 07:00:02;;;;;;;5.50;0.87;;;13.60;99.90;;;;;;4999110;28;20214;-88
2021/06/16 07:02:35;;;;;;;4.37;1.10;;;13.50;99.90;;;;;;4993979;28;20238;-88
2021/06/16 07:05:07;;;;;;;1.83;0.60;;;13.50;99.90;;;;;;4994120;28;20238;-88
2021/06/16 07:07:38;;;;;;;2.90;0.70;;;13.40;99.90;;;;;;4995246;28;20249;-87
2021/06/16 07:10:11;;;;;;;2.70;0.83;;;13.40;99.90;;;;;;4992636;28;20297;-88
2021/06/16 07:12:42;;;;;;;3.23;0.97;;;13.40;99.90;;;;;;4995910;28;20230;-88
2021/06/16 07:15:15;;;;;;;5.40;1.20;;;13.30;99.90;;;;;;4994389;28;20293;-88
2021/06/16 07:17:47;;;;;;;5.17;0.87;;;13.30;99.90;;;;;;4994308;28;20214;-88
2021/06/16 07:20:19;;;;;;;2.17;0.80;;;13.30;99.90;;;;;;4993185;28;20202;-88
2021/06/16 07:22:50;;;;;;;2.33;0.73;;;13.30;99.90;;;;;;4988742;28;20285;-88
2021/06/16 07:25:21;;;;;;;3.80;0.80;;;13.30;99.90;;;;;;4984563;28;20318;-88
2021/06/16 07:27:52;;;;;;;4.87;1.13;;;13.30;99.90;;;;;;4992192;28;20325;-88
2021/06/16 07:30:23;;;;;;;4.83;0.90;;;13.30;99.90;;;;;;4992437;28;20215;-88
2021/06/16 07:32:56;;;;;;;1.07;0.50;;;13.20;99.90;;;;;;4993549;28;20233;-88
2021/06/16 07:35:28;;;;;;;3.37;0.93;;;13.20;99.90;;;;;;4994023;28;20294;-88
2021/06/16 07:37:59;;;;;;;3.67;1.10;;;13.20;99.90;;;;;;5015100;28;20293;-89
2021/06/16 07:40:29;;;;;;;3.03;0.77;;;13.10;99.90;;;;;;4996801;28;20314;-88
2021/06/16 07:43:00;;;;;;;2.30;0.80;;;13.10;99.90;;;;;;4997760;28;20270;-88
2021/06/16 07:45:32;;;;;;;4.43;1.00;;;13.10;99.90;;;;;;4997195;28;20234;-88
2021/06/16 07:48:06;;;;;;;4.10;1.03;;;13.10;99.90;;;;;;4998009;28;20289;-88
2021/06/16 07:50:38;;;;;;;7.80;1.20;;;13.10;99.90;;;;;;4976371;28;20265;-87
2021/06/16 07:53:11;;;;;;;2.33;0.80;;;13.00;99.90;;;;;;4978631;28;20321;-88
2021/06/16 07:55:41;;;;;;;3.07;0.97;;;13.00;99.90;;;;;;4996746;28;20202;-88
2021/06/16 07:58:12;;;;;;;3.37;0.97;;;12.90;99.90;;;;;;4996626;28;20225;-87
2021/06/16 08:00:44;;;;;;;2.43;0.60;;;12.90;99.90;;;;;;4995369;28;20249;-87
2021/06/16 08:03:17;;;;;;;5.77;0.90;;;12.90;99.90;;;;;;5003167;28;20218;-87
2021/06/16 08:05:50;;;;;;;5.40;1.20;;;12.80;99.90;;;;;;4998720;28;20214;-87
2021/06/16 08:08:33;;;;;;;3.07;1.07;;;12.80;99.90;;;;;;4996874;28;20214;-87
2021/06/16 08:11:05;;;;;;;5.47;1.10;;;12.80;99.90;;;;;;4995734;28;20228;-87
2021/06/16 08:13:35;;;;;;;2.00;0.77;;;12.70;99.90;;;;;;4996522;28;20328;-87
2021/06/16 08:16:06;;;;;;;4.80;1.00;;;12.80;99.90;;;;;;4996817;28;20746;-87
2021/06/16 08:18:39;;;;;;;3.40;1.00;;;12.70;99.90;;;;;;5009737;28;20245;-87
2021/06/16 08:21:09;;;;;;;4.93;1.00;;;12.70;99.90;;;;;;5015463;28;20218;-87
2021/06/16 08:23:40;;;;;;;4.10;1.07;;;12.60;99.90;;;;;;5018949;28;20689;-88
2021/06/16 08:26:10;;;;;;;3.90;1.00;;;12.50;99.90;;;;;;4998996;28;20667;-88
2021/06/16 08:28:41;;;;;;;4.10;1.10;;;12.60;99.90;;;;;;4996863;28;20673;-88
2021/06/16 08:31:12;;;;;;;2.63;0.83;;;12.50;99.90;;;;;;4995857;28;20313;-88
2021/06/16 08:33:45;;;;;;;2.70;0.90;;;12.60;99.90;;;;;;4997383;28;20238;-88
2021/06/16 08:36:16;;;;;;;2.97;1.00;;;12.50;99.90;;;;;;4998218;28;20242;-88
2021/06/16 08:38:46;;;;;;;2.83;1.00;;;12.50;99.90;;;;;;5010008;28;20292;-88
2021/06/16 08:41:17;;;;;;;3.30;0.73;;;12.50;99.90;;;;;;5001269;28;20686;-88
2021/06/16 08:43:48;;;;;;;2.40;1.10;;;12.40;99.90;;;;;;4996140;28;20326;-88
2021/06/16 08:46:20;;;;;;;2.03;0.80;;;12.40;99.90;;;;;;4995512;28;20206;-88
2021/06/16 08:48:54;;;;;;;4.90;1.23;;;12.30;99.90;;;;;;4995023;28;20206;-88
2021/06/16 08:51:24;;;;;;;1.60;0.83;;;12.40;99.90;;;;;;4994340;28;20237;-87
2021/06/16 08:53:55;;;;;;;3.17;0.87;;;12.30;99.90;;;;;;5002215;28;20272;-88
2021/06/16 08:56:26;;;;;;;5.83;1.10;;;12.20;99.90;;;;;;5006239;28;20294;-87
2021/06/16 08:58:56;;;;;;;3.73;1.10;;;12.10;99.90;;;;;;5012125;28;20237;-87
2021/06/16 09:01:27;;;;;;;2.30;0.90;;;12.10;99.90;;;;;;4993925;28;20284;-87
2021/06/16 09:04:00;;;;;;;1.63;0.80;;;12.10;99.90;;;;;;4995392;28;20215;-87
2021/06/16 09:06:32;;;;;;;2.77;1.00;;;12.10;99.90;;;;;;4995033;28;20301;-87
2021/06/16 09:09:06;;;;;;;4.90;0.97;;;12.00;99.90;;;;;;4995610;28;20687;-88
2021/06/16 09:11:50;;;;;;;2.63;0.93;;;12.00;99.90;;;;;;4994974;28;20206;-87
2021/06/16 09:14:23;;;;;;;2.77;1.07;;;12.00;99.90;;;;;;4995248;28;20236;-86
2021/06/16 09:16:55;;;;;;;2.90;1.10;;;12.00;99.90;;;;;;4995029;28;20222;-87
2021/06/16 09:19:30;;;;;;;1.70;0.80;;;12.00;99.90;;;;;;4995173;28;20214;-87
2021/06/16 09:22:03;;;;;;;5.53;1.40;;;12.00;99.90;;;;;;4993714;28;20305;-87
2021/06/16 09:24:43;;;;;;;4.17;1.10;;;12.00;99.90;;;;;;4995362;28;20229;-88
2021/06/16 09:27:51;;;;;;;6.13;1.33;;;12.00;99.90;;;;;;4995074;28;20244;-87
2021/06/16 09:30:37;;;;;;;2.53;1.00;;;12.00;99.90;;;;;;4994242;28;20280;-88
2021/06/16 09:33:10;;;;;;;3.17;1.23;;;12.00;99.90;;;;;;4975748;28;20210;-88
2021/06/16 09:35:45;;;;;;;4.33;1.13;;;12.10;99.90;;;;;;4975767;28;20238;-88
2021/06/16 09:38:27;;;;;;;3.63;1.03;;;12.20;99.90;;;;;;4980891;28;20236;-88
2021/06/16 09:40:58;;;;;;;2.00;1.07;;;12.20;99.90;;;;;;4994093;28;20214;-88
2021/06/16 09:43:31;;;;;;;4.67;1.63;;;12.20;99.90;;;;;;4995154;28;20304;-88
2021/06/16 09:46:04;;;;;;;2.87;1.20;;;12.20;99.90;;;;;;4982232;28;20559;-88
2021/06/16 09:48:35;;;;;;;4.33;1.00;;;12.30;99.90;;;;;;4994093;28;20257;-88
2021/06/16 09:51:20;;;;;;;5.73;1.23;;;12.30;99.90;;;;;;4994171;28;20210;-88
2021/06/16 09:54:13;;;;;;;3.70;1.40;;;12.30;99.90;;;;;;4993707;28;20290;-87
2021/06/16 09:56:45;;;;;;;10.60;1.50;;;12.30;99.90;;;;;;4994646;28;20249;-87
2021/06/16 09:59:36;;;;;;;5.67;1.47;;;12.30;99.90;;;;;;4995574;28;20714;-87
2021/06/16 10:02:15;;;;;;;2.87;1.23;;;12.30;99.90;;;;;;4993509;28;20265;-86
2021/06/16 10:04:47;;;;;;;3.30;1.43;;;12.30;99.90;;;;;;4995063;28;20224;-86
2021/06/16 10:07:22;;;;;;;7.87;1.20;;;12.30;99.90;;;;;;4993789;28;20650;-86
2021/06/16 10:09:56;;;;;;;3.07;1.17;;;12.30;99.90;;;;;;4993854;28;20296;-86
2021/06/16 10:12:29;;;;;;;3.60;1.13;;;12.30;99.90;;;;;;4994117;28;20206;-86
2021/06/16 10:15:01;;;;;;;3.87;1.23;;;12.30;99.90;;;;;;4996243;28;20305;-86
2021/06/16 10:17:32;;;;;;;4.40;1.30;;;12.40;99.90;;;;;;5014804;28;20288;-86
2021/06/16 10:20:04;;;;;;;2.47;1.07;;;12.40;99.90;;;;;;5011708;28;20244;-86
2021/06/16 10:22:38;;;;;;;3.50;1.43;;;12.50;99.90;;;;;;4994391;28;20301;-86
2021/06/16 10:25:12;;;;;;;4.03;1.30;;;12.60;99.90;;;;;;5007470;28;20209;-86
2021/06/16 10:27:48;;;;;;;3.33;1.37;;;12.60;99.90;;;;;;5014269;28;20217;-86
2021/06/16 10:30:25;;;;;;;3.83;1.20;;;12.70;99.90;;;;;;5014019;28;20225;-86
2021/06/16 10:32:56;;;;;;;4.73;1.20;;;12.60;99.90;;;;;;5009217;28;20213;-87
2021/06/16 10:35:36;;;;;;;4.33;1.30;;;12.60;99.90;;;;;;4995409;28;20253;-86
2021/06/16 10:38:16;;;;;;;4.47;1.20;;;12.60;99.90;;;;;;5002055;28;20253;-86
2021/06/16 10:40:51;;;;;;;5.07;1.20;;;12.70;99.90;;;;;;5015128;28;20205;-87
2021/06/16 10:43:41;;;;;;;3.07;1.10;;;12.70;99.90;;;;;;4996561;28;20209;-86
2021/06/16 10:46:14;;;;;;;2.70;1.30;;;12.70;99.90;;;;;;4998035;28;20238;-87
2021/06/16 10:48:58;;;;;;;2.53;1.00;;;12.60;99.90;;;;;;4994821;28;20289;-86
2021/06/16 10:51:31;;;;;;;3.73;1.30;;;12.70;99.90;;;;;;4993114;28;20385;-86
2021/06/16 10:54:34;;;;;;;4.40;1.30;;;12.70;99.90;;;;;;4993062;28;20270;-86
2021/06/16 10:57:11;;;;;;;4.17;1.20;;;12.70;99.90;;;;;;4953917;29;20294;-86
2021/06/16 11:00:06;;;;;;;3.50;1.00;;;12.70;99.90;;;;;;4995635;28;20205;-87
2021/06/16 11:03:08;;;;;;;3.27;1.00;;;12.70;99.90;;;;;;5014064;28;20279;-86
2021/06/16 11:05:45;;;;;;;2.40;1.17;;;12.70;99.90;;;;;;5013690;28;20197;-86
2021/06/16 11:08:53;;;;;;;3.20;1.30;;;12.80;99.90;;;;;;5009965;28;20232;-86
2021/06/16 11:11:45;;;;;;;2.90;0.90;;;12.80;99.90;;;;;;4994327;28;20233;-86
2021/06/16 11:14:48;;;;;;;4.70;1.30;;;12.80;99.90;;;;;;4999488;28;20680;-87
2021/06/16 11:17:43;;;;;;;4.33;1.40;;;12.80;99.90;;;;;;4999837;28;20264;-87
2021/06/16 11:20:20;;;;;;;3.40;0.90;;;12.80;99.90;;;;;;4999494;28;20238;-86
2021/06/16 11:22:54;;;;;;;5.17;1.20;;;12.80;99.90;;;;;;5000327;28;20244;-86
2021/06/16 11:25:28;;;;;;;2.50;1.07;;;12.80;99.90;;;;;;5000665;28;20238;-86
2021/06/16 11:28:12;;;;;;;3.40;1.30;;;12.80;99.90;;;;;;4981623;28;20672;-86
2021/06/16 11:31:06;;;;;;;1.70;1.13;;;12.90;99.90;;;;;;4980367;28;20226;-86
2021/06/16 11:33:40;;;;;;;2.30;1.13;;;12.90;99.90;;;;;;4982612;28;20310;-86
2021/06/16 11:36:13;;;;;;;3.77;1.00;;;12.90;99.90;;;;;;5007332;28;20270;-87
2021/06/16 11:38:54;;;;;;;3.30;1.00;;;12.90;99.90;;;;;;5019462;28;20218;-87
2021/06/16 11:41:26;;;;;;;6.83;1.47;;;12.90;99.90;;;;;;5019129;28;20190;-87
2021/06/16 11:44:00;;;;;;;2.17;0.83;;;12.90;99.90;;;;;;5007209;28;20322;-86
2021/06/16 11:46:34;;;;;;;3.47;1.10;;;13.00;99.90;;;;;;4999934;28;20244;-87
2021/06/16 11:49:08;;;;;;;3.27;1.30;;;13.00;99.90;;;;;;4999263;28;20702;-88
2021/06/16 11:51:42;;;;;;;4.30;0.93;;;13.00;99.90;;;;;;4997207;28;20209;-86
2021/06/16 11:54:22;;;;;;;4.20;1.10;;;13.00;99.90;;;;;;4997315;28;20217;-87
2021/06/16 11:56:55;;;;;;;3.23;1.30;;;13.00;99.90;;;;;;4997158;28;20205;-87
2021/06/16 11:59:36;;;;;;;3.13;0.93;;;13.00;99.90;;;;;;4996918;28;20214;-86
2021/06/16 12:02:10;;;;;;;2.80;1.17;;;13.00;99.90;;;;;;4995983;28;20222;-86
2021/06/16 12:04:55;;;;;;;3.13;1.00;;;13.00;99.90;;;;;;4996778;28;20202;-87
2021/06/16 12:07:28;;;;;;;3.10;1.20;;;13.00;99.90;;;;;;4996897;28;20656;-87
2021/06/16 12:10:01;;;;;;;3.03;1.03;;;13.10;99.90;;;;;;4997653;28;20210;-87
2021/06/16 12:12:46;;;;;;;3.57;1.33;;;13.10;99.90;;;;;;5016216;28;20197;-87
2021/06/16 12:15:22;;;;;;;6.07;1.20;;;13.10;99.90;;;;;;4976577;28;20234;-87
2021/06/16 12:18:00;;;;;;;2.37;1.07;;;13.00;99.90;;;;;;4976669;28;20663;-87
2021/06/16 12:20:33;;;;;;;2.53;1.10;;;13.00;99.90;;;;;;4992025;28;20241;-86
2021/06/16 12:23:20;;;;;;;3.90;1.10;;;12.90;99.90;;;;;;4995619;28;20202;-87
2021/06/16 12:25:52;;;;;;;3.53;1.20;;;12.90;99.90;;;;;;4995964;28;20306;-87
2021/06/16 12:28:23;;;;;;;6.07;1.20;;;12.90;99.90;;;;;;4996548;28;20214;-86
2021/06/16 12:30:57;;;;;;;4.00;1.30;;;12.90;99.90;;;;;;5013428;28;20214;-87
2021/06/16 12:33:39;;;;;;;2.87;1.00;;;12.90;99.90;;;;;;5015845;28;20292;-87
2021/06/16 12:36:21;;;;;;;1.83;0.90;;;12.90;99.90;;;;;;5015367;28;20328;-87
2021/06/16 12:39:10;;;;;;;2.63;1.13;;;13.00;99.90;;;;;;4987705;28;20215;-87
2021/06/16 12:41:42;;;;;;;4.93;0.90;;;13.00;99.90;;;;;;4995451;28;20205;-87
2021/06/16 12:44:19;;;;;;;4.63;1.10;;;13.00;99.90;;;;;;4996162;28;20309;-87
2021/06/16 12:46:56;;;;;;;5.07;1.47;;;13.00;99.90;;;;;;4995761;28;20214;-87
2021/06/16 12:49:28;;;;;;;1.37;1.00;;;13.10;99.90;;;;;;4991684;28;20605;-87
2021/06/16 12:52:03;;;;;;;1.97;1.00;;;13.10;99.90;;;;;;5000249;28;20244;-87
2021/06/16 12:54:36;;;;;;;2.33;1.00;;;13.20;99.90;;;;;;5010586;28;20289;-87
2021/06/16 12:57:10;;;;;;;1.57;0.90;;;13.20;99.90;;;;;;4996281;28;20242;-87
2021/06/16 12:59:44;;;;;;;2.47;1.40;;;13.20;99.90;;;;;;5015628;28;20206;-88
2021/06/16 13:02:30;;;;;;;1.63;0.83;;;13.20;99.90;;;;;;5029514;28;20194;-87
2021/06/16 13:05:03;;;;;;;2.93;1.03;;;13.20;99.90;;;;;;5025469;28;20225;-86
2021/06/16 13:07:45;;;;;;;2.50;0.93;;;13.20;99.90;;;;;;5015392;28;20222;-87
2021/06/16 13:10:19;;;;;;;4.47;1.23;;;13.10;99.90;;;;;;5014305;28;20681;-87
2021/06/16 13:12:57;;;;;;;2.30;1.00;;;13.20;99.90;;;;;;5012146;28;20217;-87
2021/06/16 13:15:30;;;;;;;2.07;1.00;;;13.10;99.90;;;;;;4995211;28;20242;-86
2021/06/16 13:18:04;;;;;;;4.47;0.93;;;13.10;99.90;;;;;;4994906;28;20234;-87
2021/06/16 13:20:36;;;;;;;2.57;1.03;;;13.20;99.90;;;;;;4993600;28;20293;-87
2021/06/16 13:23:18;;;;;;;3.07;1.10;;;13.20;99.90;;;;;;4994932;28;20253;-87